sensor_id;sensor_type;location;lat;lon;timestamp;temperature;humidity
48589;DHT22;34369;51.174;6.738;2024-03-07T00:01:58;5.70;66.20
48589;DHT22;34369;51.174;6.738;2024-03-07T00:04:31;5.70;66.20
48589;DHT22;34369;51.174;6.738;2024-03-07T00:07:04;5.70;66.30
48589;DHT22;34369;51.174;6.738;2024-03-07T00:09:39;5.60;66.50
48589;DHT22;34369;51.174;6.738;2024-03-07T00:12:13;5.60;66.60
48589;DHT22;34369;51.174;6.738;2024-03-07T00:14:45;5.60;66.70
48589;DHT22;34369;51.174;6.738;2024-03-07T00:17:17;5.60;66.50
48589;DHT22;34369;51.174;6.738;2024-03-07T00:19:50;5.60;66.60
48589;DHT22;34369;51.174;6.738;2024-03-07T00:22:22;5.60;66.70
48589;DHT22;34369;51.174;6.738;2024-03-07T00:24:57;5.60;66.80
48589;DHT22;34369;51.174;6.738;2024-03-07T00:27:33;5.50;66.80
48589;DHT22;34369;51.174;6.738;2024-03-07T00:30:08;5.60;66.90
48589;DHT22;34369;51.174;6.738;2024-03-07T00:32:40;5.50;66.80
48589;DHT22;34369;51.174;6.738;2024-03-07T00:35:14;5.50;66.70
48589;DHT22;34369;51.174;6.738;2024-03-07T00:37:51;5.50;66.70
48589;DHT22;34369;51.174;6.738;2024-03-07T00:40:23;5.50;66.50
48589;DHT22;34369;51.174;6.738;2024-03-07T00:42:58;5.50;66.40
48589;DHT22;34369;51.174;6.738;2024-03-07T00:45:30;5.50;66.30
48589;DHT22;34369;51.174;6.738;2024-03-07T00:48:04;5.40;66.00
48589;DHT22;34369;51.174;6.738;2024-03-07T00:50:36;5.30;65.80
48589;DHT22;34369;51.174;6.738;2024-03-07T00:53:09;5.30;65.60
48589;DHT22;34369;51.174;6.738;2024-03-07T00:55:41;5.30;65.80
48589;DHT22;34369;51.174;6.738;2024-03-07T00:58:14;5.20;66.00
48589;DHT22;34369;51.174;6.738;2024-03-07T01:00:47;5.10;66.10
48589;DHT22;34369;51.174;6.738;2024-03-07T01:06:09;5.10;66.20
48589;DHT22;34369;51.174;6.738;2024-03-07T01:08:43;5.00;66.30
48589;DHT22;34369;51.174;6.738;2024-03-07T01:11:15;5.00;66.20
48589;DHT22;34369;51.174;6.738;2024-03-07T01:13:49;5.00;66.20
48589;DHT22;34369;51.174;6.738;2024-03-07T01:16:21;5.00;66.40
48589;DHT22;34369;51.174;6.738;2024-03-07T01:18:53;5.00;66.30
48589;DHT22;34369;51.174;6.738;2024-03-07T01:21:27;5.00;66.20
48589;DHT22;34369;51.174;6.738;2024-03-07T01:24:00;4.90;65.90
48589;DHT22;34369;51.174;6.738;2024-03-07T01:26:33;4.90;65.80
48589;DHT22;34369;51.174;6.738;2024-03-07T01:29:06;4.90;65.60
48589;DHT22;34369;51.174;6.738;2024-03-07T01:31:38;4.80;65.30
48589;DHT22;34369;51.174;6.738;2024-03-07T01:34:10;4.70;65.30
48589;DHT22;34369;51.174;6.738;2024-03-07T01:36:44;4.70;65.50
48589;DHT22;34369;51.174;6.738;2024-03-07T01:39:16;4.70;65.70
48589;DHT22;34369;51.174;6.738;2024-03-07T01:41:48;4.60;65.90
48589;DHT22;34369;51.174;6.738;2024-03-07T01:44:23;4.50;65.80
48589;DHT22;34369;51.174;6.738;2024-03-07T01:46:55;4.50;65.80
48589;DHT22;34369;51.174;6.738;2024-03-07T01:49:27;4.50;65.70
48589;DHT22;34369;51.174;6.738;2024-03-07T01:52:01;4.50;66.20
48589;DHT22;34369;51.174;6.738;2024-03-07T01:54:36;4.50;66.30
48589;DHT22;34369;51.174;6.738;2024-03-07T01:57:09;4.50;67.00
48589;DHT22;34369;51.174;6.738;2024-03-07T01:59:41;4.40;66.20
48589;DHT22;34369;51.174;6.738;2024-03-07T02:02:15;4.40;66.50
48589;DHT22;34369;51.174;6.738;2024-03-07T02:04:48;4.40;66.50
48589;DHT22;34369;51.174;6.738;2024-03-07T02:07:25;4.40;66.70
48589;DHT22;34369;51.174;6.738;2024-03-07T02:10:02;4.30;66.80
48589;DHT22;34369;51.174;6.738;2024-03-07T02:12:35;4.30;67.10
48589;DHT22;34369;51.174;6.738;2024-03-07T02:15:08;4.30;67.10
48589;DHT22;34369;51.174;6.738;2024-03-07T02:17:41;4.30;67.00
48589;DHT22;34369;51.174;6.738;2024-03-07T02:20:14;4.30;67.10
48589;DHT22;34369;51.174;6.738;2024-03-07T02:22:47;4.30;67.30
48589;DHT22;34369;51.174;6.738;2024-03-07T02:25:21;4.30;67.20
48589;DHT22;34369;51.174;6.738;2024-03-07T02:27:53;4.30;67.20
48589;DHT22;34369;51.174;6.738;2024-03-07T02:30:26;4.30;67.00
48589;DHT22;34369;51.174;6.738;2024-03-07T02:33:00;4.30;67.10
48589;DHT22;34369;51.174;6.738;2024-03-07T02:35:37;4.30;67.00
48589;DHT22;34369;51.174;6.738;2024-03-07T02:38:11;4.30;67.20
48589;DHT22;34369;51.174;6.738;2024-03-07T02:40:44;4.30;67.30
48589;DHT22;34369;51.174;6.738;2024-03-07T02:43:16;4.40;67.10
48589;DHT22;34369;51.174;6.738;2024-03-07T02:45:50;4.30;67.00
48589;DHT22;34369;51.174;6.738;2024-03-07T02:48:22;4.30;67.00
48589;DHT22;34369;51.174;6.738;2024-03-07T02:50:55;4.30;66.90
48589;DHT22;34369;51.174;6.738;2024-03-07T02:53:28;4.30;66.90
48589;DHT22;34369;51.174;6.738;2024-03-07T02:56:01;4.30;66.70
48589;DHT22;34369;51.174;6.738;2024-03-07T02:58:33;4.30;66.50
48589;DHT22;34369;51.174;6.738;2024-03-07T03:01:05;4.30;66.20
48589;DHT22;34369;51.174;6.738;2024-03-07T03:03:37;4.20;66.10
48589;DHT22;34369;51.174;6.738;2024-03-07T03:06:12;4.20;65.90
48589;DHT22;34369;51.174;6.738;2024-03-07T03:08:48;4.20;65.80
48589;DHT22;34369;51.174;6.738;2024-03-07T03:11:20;4.10;65.90
48589;DHT22;34369;51.174;6.738;2024-03-07T03:13:52;4.10;66.00
48589;DHT22;34369;51.174;6.738;2024-03-07T03:16:26;4.10;66.10
48589;DHT22;34369;51.174;6.738;2024-03-07T03:18:58;4.00;66.10
48589;DHT22;34369;51.174;6.738;2024-03-07T03:21:32;4.00;66.20
48589;DHT22;34369;51.174;6.738;2024-03-07T03:24:06;4.00;66.10
48589;DHT22;34369;51.174;6.738;2024-03-07T03:26:38;3.90;66.20
48589;DHT22;34369;51.174;6.738;2024-03-07T03:29:12;3.90;66.10
48589;DHT22;34369;51.174;6.738;2024-03-07T03:31:48;3.90;66.30
48589;DHT22;34369;51.174;6.738;2024-03-07T03:34:20;3.90;66.20
48589;DHT22;34369;51.174;6.738;2024-03-07T03:36:52;3.90;66.30
48589;DHT22;34369;51.174;6.738;2024-03-07T03:39:26;3.80;66.20
48589;DHT22;34369;51.174;6.738;2024-03-07T03:41:58;3.80;66.40
48589;DHT22;34369;51.174;6.738;2024-03-07T03:44:30;3.80;66.30
48589;DHT22;34369;51.174;6.738;2024-03-07T03:47:04;3.80;66.50
48589;DHT22;34369;51.174;6.738;2024-03-07T03:49:36;3.80;66.50
48589;DHT22;34369;51.174;6.738;2024-03-07T03:52:10;3.80;66.50
48589;DHT22;34369;51.174;6.738;2024-03-07T03:54:44;3.80;66.50
48589;DHT22;34369;51.174;6.738;2024-03-07T03:57:16;3.70;66.60
48589;DHT22;34369;51.174;6.738;2024-03-07T03:59:49;3.70;66.80
48589;DHT22;34369;51.174;6.738;2024-03-07T04:02:22;3.70;66.70
48589;DHT22;34369;51.174;6.738;2024-03-07T04:04:54;3.70;66.80
48589;DHT22;34369;51.174;6.738;2024-03-07T04:07:26;3.70;66.60
48589;DHT22;34369;51.174;6.738;2024-03-07T04:10:00;3.70;66.80
48589;DHT22;34369;51.174;6.738;2024-03-07T04:12:34;3.60;67.00
48589;DHT22;34369;51.174;6.738;2024-03-07T04:15:06;3.60;66.90
48589;DHT22;34369;51.174;6.738;2024-03-07T04:17:42;3.60;66.90
48589;DHT22;34369;51.174;6.738;2024-03-07T04:20:16;3.60;66.80
48589;DHT22;34369;51.174;6.738;2024-03-07T04:22:48;3.60;66.70
48589;DHT22;34369;51.174;6.738;2024-03-07T04:25:22;3.60;66.70
48589;DHT22;34369;51.174;6.738;2024-03-07T04:27:55;3.60;66.60
48589;DHT22;34369;51.174;6.738;2024-03-07T04:30:29;3.50;66.80
48589;DHT22;34369;51.174;6.738;2024-03-07T04:33:01;3.50;66.80
48589;DHT22;34369;51.174;6.738;2024-03-07T04:35:34;3.50;66.60
48589;DHT22;34369;51.174;6.738;2024-03-07T04:38:06;3.50;66.90
48589;DHT22;34369;51.174;6.738;2024-03-07T04:40:43;3.50;67.00
48589;DHT22;34369;51.174;6.738;2024-03-07T04:43:15;3.40;67.00
48589;DHT22;34369;51.174;6.738;2024-03-07T04:45:49;3.40;67.10
48589;DHT22;34369;51.174;6.738;2024-03-07T04:48:21;3.40;67.10
48589;DHT22;34369;51.174;6.738;2024-03-07T04:50:53;3.40;67.00
48589;DHT22;34369;51.174;6.738;2024-03-07T04:53:25;3.40;67.20
48589;DHT22;34369;51.174;6.738;2024-03-07T04:55:58;3.40;67.30
48589;DHT22;34369;51.174;6.738;2024-03-07T04:58:31;3.40;67.30
48589;DHT22;34369;51.174;6.738;2024-03-07T05:01:03;3.50;67.50
48589;DHT22;34369;51.174;6.738;2024-03-07T05:03:35;3.50;67.70
48589;DHT22;34369;51.174;6.738;2024-03-07T05:06:07;3.50;67.70
48589;DHT22;34369;51.174;6.738;2024-03-07T05:08:39;3.50;67.90
48589;DHT22;34369;51.174;6.738;2024-03-07T05:11:13;3.50;68.10
48589;DHT22;34369;51.174;6.738;2024-03-07T05:13:45;3.50;68.30
48589;DHT22;34369;51.174;6.738;2024-03-07T05:16:19;3.60;68.10
48589;DHT22;34369;51.174;6.738;2024-03-07T05:18:52;3.60;68.00
48589;DHT22;34369;51.174;6.738;2024-03-07T05:21:25;3.60;67.90
48589;DHT22;34369;51.174;6.738;2024-03-07T05:24:05;3.60;67.80
48589;DHT22;34369;51.174;6.738;2024-03-07T05:26:40;3.60;67.80
48589;DHT22;34369;51.174;6.738;2024-03-07T05:29:12;3.70;67.70
48589;DHT22;34369;51.174;6.738;2024-03-07T05:31:46;3.70;67.60
48589;DHT22;34369;51.174;6.738;2024-03-07T05:34:19;3.60;67.50
48589;DHT22;34369;51.174;6.738;2024-03-07T05:36:53;3.60;67.30
48589;DHT22;34369;51.174;6.738;2024-03-07T05:39:26;3.60;67.30
48589;DHT22;34369;51.174;6.738;2024-03-07T05:42:01;3.60;67.20
48589;DHT22;34369;51.174;6.738;2024-03-07T05:44:34;3.60;67.30
48589;DHT22;34369;51.174;6.738;2024-03-07T05:47:06;3.60;67.20
48589;DHT22;34369;51.174;6.738;2024-03-07T05:49:39;3.60;67.00
48589;DHT22;34369;51.174;6.738;2024-03-07T05:52:11;3.60;67.10
48589;DHT22;34369;51.174;6.738;2024-03-07T05:54:44;3.60;67.00
48589;DHT22;34369;51.174;6.738;2024-03-07T05:57:17;3.50;67.00
48589;DHT22;34369;51.174;6.738;2024-03-07T05:59:51;3.50;67.00
48589;DHT22;34369;51.174;6.738;2024-03-07T06:02:24;3.50;67.00
48589;DHT22;34369;51.174;6.738;2024-03-07T06:04:58;3.40;67.00
48589;DHT22;34369;51.174;6.738;2024-03-07T06:07:31;3.40;66.90
48589;DHT22;34369;51.174;6.738;2024-03-07T06:10:05;3.40;66.80
48589;DHT22;34369;51.174;6.738;2024-03-07T06:12:43;3.30;66.70
48589;DHT22;34369;51.174;6.738;2024-03-07T06:15:17;3.30;66.70
48589;DHT22;34369;51.174;6.738;2024-03-07T06:17:51;3.30;66.80
48589;DHT22;34369;51.174;6.738;2024-03-07T06:20:23;3.20;66.70
48589;DHT22;34369;51.174;6.738;2024-03-07T06:22:56;3.20;66.80
48589;DHT22;34369;51.174;6.738;2024-03-07T06:25:30;3.20;66.80
48589;DHT22;34369;51.174;6.738;2024-03-07T06:28:09;3.20;66.80
48589;DHT22;34369;51.174;6.738;2024-03-07T06:30:43;3.10;66.80
48589;DHT22;34369;51.174;6.738;2024-03-07T06:33:17;3.10;66.70
48589;DHT22;34369;51.174;6.738;2024-03-07T06:35:49;3.10;66.80
48589;DHT22;34369;51.174;6.738;2024-03-07T06:38:22;3.10;67.00
48589;DHT22;34369;51.174;6.738;2024-03-07T06:40:56;3.10;67.10
48589;DHT22;34369;51.174;6.738;2024-03-07T06:43:30;3.10;67.10
48589;DHT22;34369;51.174;6.738;2024-03-07T06:46:06;3.10;67.30
48589;DHT22;34369;51.174;6.738;2024-03-07T06:48:39;3.10;67.20
48589;DHT22;34369;51.174;6.738;2024-03-07T06:51:13;3.10;67.60
48589;DHT22;34369;51.174;6.738;2024-03-07T06:53:45;3.10;67.20
48589;DHT22;34369;51.174;6.738;2024-03-07T06:56:18;3.10;67.30
48589;DHT22;34369;51.174;6.738;2024-03-07T06:58:51;3.10;67.20
48589;DHT22;34369;51.174;6.738;2024-03-07T07:01:23;3.20;67.50
48589;DHT22;34369;51.174;6.738;2024-03-07T07:03:55;3.20;67.50
48589;DHT22;34369;51.174;6.738;2024-03-07T07:06:29;3.20;67.70
48589;DHT22;34369;51.174;6.738;2024-03-07T07:09:01;3.30;68.00
48589;DHT22;34369;51.174;6.738;2024-03-07T07:11:36;3.30;68.10
48589;DHT22;34369;51.174;6.738;2024-03-07T07:14:10;3.40;68.60
48589;DHT22;34369;51.174;6.738;2024-03-07T07:16:48;3.50;69.10
48589;DHT22;34369;51.174;6.738;2024-03-07T07:19:20;3.60;69.30
48589;DHT22;34369;51.174;6.738;2024-03-07T07:21:52;3.80;70.00
48589;DHT22;34369;51.174;6.738;2024-03-07T07:24:25;4.00;70.20
48589;DHT22;34369;51.174;6.738;2024-03-07T07:26:59;4.20;70.40
48589;DHT22;34369;51.174;6.738;2024-03-07T07:29:33;4.50;70.60
48589;DHT22;34369;51.174;6.738;2024-03-07T07:32:06;4.70;70.50
48589;DHT22;34369;51.174;6.738;2024-03-07T07:34:38;5.00;70.10
48589;DHT22;34369;51.174;6.738;2024-03-07T07:37:13;5.20;69.50
48589;DHT22;34369;51.174;6.738;2024-03-07T07:39:45;5.50;68.90
48589;DHT22;34369;51.174;6.738;2024-03-07T07:42:18;5.70;68.40
48589;DHT22;34369;51.174;6.738;2024-03-07T07:44:52;5.90;68.20
48589;DHT22;34369;51.174;6.738;2024-03-07T07:47:25;6.10;67.50
48589;DHT22;34369;51.174;6.738;2024-03-07T07:49:57;6.40;66.90
48589;DHT22;34369;51.174;6.738;2024-03-07T07:52:29;6.70;66.60
48589;DHT22;34369;51.174;6.738;2024-03-07T07:55:01;6.80;65.60
48589;DHT22;34369;51.174;6.738;2024-03-07T07:57:34;6.90;65.00
48589;DHT22;34369;51.174;6.738;2024-03-07T08:00:09;7.10;64.40
48589;DHT22;34369;51.174;6.738;2024-03-07T08:02:43;7.30;64.20
48589;DHT22;34369;51.174;6.738;2024-03-07T08:05:15;7.50;64.40
48589;DHT22;34369;51.174;6.738;2024-03-07T08:07:49;7.70;63.80
48589;DHT22;34369;51.174;6.738;2024-03-07T08:10:25;7.90;62.90
48589;DHT22;34369;51.174;6.738;2024-03-07T08:13:01;8.20;62.60
48589;DHT22;34369;51.174;6.738;2024-03-07T08:15:39;8.50;62.60
48589;DHT22;34369;51.174;6.738;2024-03-07T08:18:11;8.80;62.00
48589;DHT22;34369;51.174;6.738;2024-03-07T08:20:44;9.00;61.00
48589;DHT22;34369;51.174;6.738;2024-03-07T08:23:16;9.30;60.10
48589;DHT22;34369;51.174;6.738;2024-03-07T08:25:48;9.50;59.60
48589;DHT22;34369;51.174;6.738;2024-03-07T08:28:21;9.70;58.90
48589;DHT22;34369;51.174;6.738;2024-03-07T08:30:56;9.90;59.10
48589;DHT22;34369;51.174;6.738;2024-03-07T08:33:29;10.00;57.00
48589;DHT22;34369;51.174;6.738;2024-03-07T08:36:04;10.20;56.50
48589;DHT22;34369;51.174;6.738;2024-03-07T08:38:40;10.40;55.30
48589;DHT22;34369;51.174;6.738;2024-03-07T08:41:14;10.50;54.80
48589;DHT22;34369;51.174;6.738;2024-03-07T08:43:46;10.60;53.90
48589;DHT22;34369;51.174;6.738;2024-03-07T08:46:20;10.60;54.20
48589;DHT22;34369;51.174;6.738;2024-03-07T08:48:53;10.60;53.20
48589;DHT22;34369;51.174;6.738;2024-03-07T08:51:25;10.70;53.00
48589;DHT22;34369;51.174;6.738;2024-03-07T08:53:57;10.70;52.20
48589;DHT22;34369;51.174;6.738;2024-03-07T08:56:29;10.80;52.10
48589;DHT22;34369;51.174;6.738;2024-03-07T08:59:03;10.80;51.10
48589;DHT22;34369;51.174;6.738;2024-03-07T09:01:38;10.80;51.50
48589;DHT22;34369;51.174;6.738;2024-03-07T09:04:10;10.90;50.90
48589;DHT22;34369;51.174;6.738;2024-03-07T09:06:42;11.00;50.40
48589;DHT22;34369;51.174;6.738;2024-03-07T09:09:15;11.00;50.20
48589;DHT22;34369;51.174;6.738;2024-03-07T09:11:52;11.00;50.30
48589;DHT22;34369;51.174;6.738;2024-03-07T09:14:25;11.00;49.70
48589;DHT22;34369;51.174;6.738;2024-03-07T09:16:59;11.00;48.60
48589;DHT22;34369;51.174;6.738;2024-03-07T09:19:32;11.00;48.60
48589;DHT22;34369;51.174;6.738;2024-03-07T09:22:05;10.90;49.20
48589;DHT22;34369;51.174;6.738;2024-03-07T09:24:39;10.90;49.10
48589;DHT22;34369;51.174;6.738;2024-03-07T09:27:11;10.90;49.00
48589;DHT22;34369;51.174;6.738;2024-03-07T09:29:45;11.00;48.80
48589;DHT22;34369;51.174;6.738;2024-03-07T09:32:22;11.00;48.50
48589;DHT22;34369;51.174;6.738;2024-03-07T09:34:54;11.00;48.50
48589;DHT22;34369;51.174;6.738;2024-03-07T09:37:26;11.00;48.00
48589;DHT22;34369;51.174;6.738;2024-03-07T09:39:59;11.10;48.50
48589;DHT22;34369;51.174;6.738;2024-03-07T09:42:31;11.10;48.20
48589;DHT22;34369;51.174;6.738;2024-03-07T09:45:06;11.10;48.00
48589;DHT22;34369;51.174;6.738;2024-03-07T09:47:44;11.10;47.60
48589;DHT22;34369;51.174;6.738;2024-03-07T09:50:19;11.10;47.50
48589;DHT22;34369;51.174;6.738;2024-03-07T09:52:53;11.00;47.10
48589;DHT22;34369;51.174;6.738;2024-03-07T09:55:26;11.00;47.50
48589;DHT22;34369;51.174;6.738;2024-03-07T09:58:00;10.90;47.50
48589;DHT22;34369;51.174;6.738;2024-03-07T10:00:37;10.80;47.40
48589;DHT22;34369;51.174;6.738;2024-03-07T10:03:12;10.70;47.30
48589;DHT22;34369;51.174;6.738;2024-03-07T10:05:45;10.60;47.10
48589;DHT22;34369;51.174;6.738;2024-03-07T10:08:20;10.50;47.20
48589;DHT22;34369;51.174;6.738;2024-03-07T10:10:55;10.30;47.10
48589;DHT22;34369;51.174;6.738;2024-03-07T10:13:28;10.20;46.70
48589;DHT22;34369;51.174;6.738;2024-03-07T10:16:00;10.00;47.10
48589;DHT22;34369;51.174;6.738;2024-03-07T10:18:47;10.00;47.20
48589;DHT22;34369;51.174;6.738;2024-03-07T10:21:21;9.70;47.50
48589;DHT22;34369;51.174;6.738;2024-03-07T10:24:04;9.70;47.60
48589;DHT22;34369;51.174;6.738;2024-03-07T10:26:38;9.50;47.60
48589;DHT22;34369;51.174;6.738;2024-03-07T10:29:10;9.40;47.90
48589;DHT22;34369;51.174;6.738;2024-03-07T10:31:44;9.40;48.20
48589;DHT22;34369;51.174;6.738;2024-03-07T10:34:19;9.30;48.30
48589;DHT22;34369;51.174;6.738;2024-03-07T10:36:54;9.20;48.70
48589;DHT22;34369;51.174;6.738;2024-03-07T10:39:27;9.20;49.10
48589;DHT22;34369;51.174;6.738;2024-03-07T10:42:00;9.10;48.90
48589;DHT22;34369;51.174;6.738;2024-03-07T10:44:38;9.10;48.90
48589;DHT22;34369;51.174;6.738;2024-03-07T10:47:16;9.00;48.90
48589;DHT22;34369;51.174;6.738;2024-03-07T10:50:02;9.10;49.20
48589;DHT22;34369;51.174;6.738;2024-03-07T10:52:49;9.10;49.10
48589;DHT22;34369;51.174;6.738;2024-03-07T10:55:33;9.20;49.40
48589;DHT22;34369;51.174;6.738;2024-03-07T10:58:16;9.20;49.00
48589;DHT22;34369;51.174;6.738;2024-03-07T11:00:58;9.30;49.40
48589;DHT22;34369;51.174;6.738;2024-03-07T11:03:35;9.40;49.40
48589;DHT22;34369;51.174;6.738;2024-03-07T11:06:11;9.40;49.60
48589;DHT22;34369;51.174;6.738;2024-03-07T11:08:45;9.40;49.20
48589;DHT22;34369;51.174;6.738;2024-03-07T11:11:18;9.50;49.20
48589;DHT22;34369;51.174;6.738;2024-03-07T11:13:51;9.60;49.60
48589;DHT22;34369;51.174;6.738;2024-03-07T11:16:25;9.60;49.60
48589;DHT22;34369;51.174;6.738;2024-03-07T11:19:24;9.60;49.50
48589;DHT22;34369;51.174;6.738;2024-03-07T11:21:59;9.70;49.00
48589;DHT22;34369;51.174;6.738;2024-03-07T11:24:32;9.70;49.60
48589;DHT22;34369;51.174;6.738;2024-03-07T11:27:09;9.80;49.10
48589;DHT22;34369;51.174;6.738;2024-03-07T11:29:48;9.90;48.80
48589;DHT22;34369;51.174;6.738;2024-03-07T11:32:23;10.00;48.70
48589;DHT22;34369;51.174;6.738;2024-03-07T11:34:57;10.00;48.90
48589;DHT22;34369;51.174;6.738;2024-03-07T11:37:39;10.00;48.80
48589;DHT22;34369;51.174;6.738;2024-03-07T11:40:44;10.00;49.10
48589;DHT22;34369;51.174;6.738;2024-03-07T11:43:20;10.20;49.10
48589;DHT22;34369;51.174;6.738;2024-03-07T11:45:55;10.20;49.10
48589;DHT22;34369;51.174;6.738;2024-03-07T11:48:28;10.30;49.50
48589;DHT22;34369;51.174;6.738;2024-03-07T11:51:01;10.40;49.10
48589;DHT22;34369;51.174;6.738;2024-03-07T11:53:38;10.60;49.30
48589;DHT22;34369;51.174;6.738;2024-03-07T11:56:11;10.70;49.00
48589;DHT22;34369;51.174;6.738;2024-03-07T11:58:47;10.90;49.20
48589;DHT22;34369;51.174;6.738;2024-03-07T12:01:26;11.00;49.20
48589;DHT22;34369;51.174;6.738;2024-03-07T12:04:01;11.20;48.30
48589;DHT22;34369;51.174;6.738;2024-03-07T12:06:36;11.40;48.90
48589;DHT22;34369;51.174;6.738;2024-03-07T12:09:13;11.60;48.90
48589;DHT22;34369;51.174;6.738;2024-03-07T12:11:54;11.80;48.00
48589;DHT22;34369;51.174;6.738;2024-03-07T12:14:26;12.10;48.50
48589;DHT22;34369;51.174;6.738;2024-03-07T12:17:00;12.40;47.80
48589;DHT22;34369;51.174;6.738;2024-03-07T12:19:34;12.50;46.80
48589;DHT22;34369;51.174;6.738;2024-03-07T12:22:11;12.80;46.50
48589;DHT22;34369;51.174;6.738;2024-03-07T12:24:45;12.80;45.80
48589;DHT22;34369;51.174;6.738;2024-03-07T12:27:17;12.90;45.70
48589;DHT22;34369;51.174;6.738;2024-03-07T12:29:51;12.90;45.50
48589;DHT22;34369;51.174;6.738;2024-03-07T12:32:24;12.80;45.20
48589;DHT22;34369;51.174;6.738;2024-03-07T12:34:57;12.80;45.00
48589;DHT22;34369;51.174;6.738;2024-03-07T12:37:34;12.70;45.00
48589;DHT22;34369;51.174;6.738;2024-03-07T12:40:13;12.50;44.80
48589;DHT22;34369;51.174;6.738;2024-03-07T12:42:51;12.40;45.30
48589;DHT22;34369;51.174;6.738;2024-03-07T12:45:24;12.30;45.10
48589;DHT22;34369;51.174;6.738;2024-03-07T12:47:59;12.20;45.00
48589;DHT22;34369;51.174;6.738;2024-03-07T12:50:35;12.00;45.30
48589;DHT22;34369;51.174;6.738;2024-03-07T12:53:08;11.90;45.60
48589;DHT22;34369;51.174;6.738;2024-03-07T12:55:44;11.80;45.40
48589;DHT22;34369;51.174;6.738;2024-03-07T12:58:17;11.70;45.70
48589;DHT22;34369;51.174;6.738;2024-03-07T13:00:50;11.70;45.90
48589;DHT22;34369;51.174;6.738;2024-03-07T13:03:23;11.60;45.90
48589;DHT22;34369;51.174;6.738;2024-03-07T13:05:59;11.60;45.70
48589;DHT22;34369;51.174;6.738;2024-03-07T13:08:31;11.50;46.10
48589;DHT22;34369;51.174;6.738;2024-03-07T13:11:06;11.50;46.00
48589;DHT22;34369;51.174;6.738;2024-03-07T13:13:40;11.40;45.50
48589;DHT22;34369;51.174;6.738;2024-03-07T13:16:12;11.40;45.60
48589;DHT22;34369;51.174;6.738;2024-03-07T13:18:44;11.40;45.60
48589;DHT22;34369;51.174;6.738;2024-03-07T13:21:16;11.20;45.80
48589;DHT22;34369;51.174;6.738;2024-03-07T13:23:48;11.20;45.80
48589;DHT22;34369;51.174;6.738;2024-03-07T13:26:24;11.10;45.90
48589;DHT22;34369;51.174;6.738;2024-03-07T13:28:57;11.00;45.70
48589;DHT22;34369;51.174;6.738;2024-03-07T13:31:31;11.00;45.70
48589;DHT22;34369;51.174;6.738;2024-03-07T13:34:09;10.90;45.70
48589;DHT22;34369;51.174;6.738;2024-03-07T13:36:44;10.80;46.10
48589;DHT22;34369;51.174;6.738;2024-03-07T13:39:20;10.80;46.50
48589;DHT22;34369;51.174;6.738;2024-03-07T13:41:56;10.80;46.50
48589;DHT22;34369;51.174;6.738;2024-03-07T13:44:28;10.80;46.20
48589;DHT22;34369;51.174;6.738;2024-03-07T13:47:00;10.80;46.50
48589;DHT22;34369;51.174;6.738;2024-03-07T13:49:32;10.70;46.30
48589;DHT22;34369;51.174;6.738;2024-03-07T13:52:08;10.60;46.40
48589;DHT22;34369;51.174;6.738;2024-03-07T13:54:48;10.60;46.50
48589;DHT22;34369;51.174;6.738;2024-03-07T13:57:29;10.60;46.90
48589;DHT22;34369;51.174;6.738;2024-03-07T14:00:20;10.60;46.80
48589;DHT22;34369;51.174;6.738;2024-03-07T14:06:23;10.60;47.30
48589;DHT22;34369;51.174;6.738;2024-03-07T14:09:32;10.60;47.20
48589;DHT22;34369;51.174;6.738;2024-03-07T14:12:27;10.50;47.70
48589;DHT22;34369;51.174;6.738;2024-03-07T14:15:44;10.50;47.20
48589;DHT22;34369;51.174;6.738;2024-03-07T14:22:19;10.50;47.30
48589;DHT22;34369;51.174;6.738;2024-03-07T14:28:16;10.50;47.30
48589;DHT22;34369;51.174;6.738;2024-03-07T14:31:01;10.50;47.20
48589;DHT22;34369;51.174;6.738;2024-03-07T14:33:50;10.50;47.50
48589;DHT22;34369;51.174;6.738;2024-03-07T14:36:37;10.40;47.20
48589;DHT22;34369;51.174;6.738;2024-03-07T14:39:11;10.40;47.30
48589;DHT22;34369;51.174;6.738;2024-03-07T14:41:51;10.30;47.50
48589;DHT22;34369;51.174;6.738;2024-03-07T14:44:28;10.30;47.70
48589;DHT22;34369;51.174;6.738;2024-03-07T14:47:03;10.30;47.60
48589;DHT22;34369;51.174;6.738;2024-03-07T14:49:37;10.30;47.30
48589;DHT22;34369;51.174;6.738;2024-03-07T14:52:10;10.20;47.10
48589;DHT22;34369;51.174;6.738;2024-03-07T14:54:42;10.20;47.20
48589;DHT22;34369;51.174;6.738;2024-03-07T14:57:15;10.20;47.20
48589;DHT22;34369;51.174;6.738;2024-03-07T14:59:48;10.20;47.30
48589;DHT22;34369;51.174;6.738;2024-03-07T15:02:22;10.20;47.50
48589;DHT22;34369;51.174;6.738;2024-03-07T15:04:54;10.20;47.20
48589;DHT22;34369;51.174;6.738;2024-03-07T15:07:26;10.30;47.40
48589;DHT22;34369;51.174;6.738;2024-03-07T15:09:59;10.30;47.20
48589;DHT22;34369;51.174;6.738;2024-03-07T15:12:36;10.30;47.00
48589;DHT22;34369;51.174;6.738;2024-03-07T15:15:10;10.40;46.90
48589;DHT22;34369;51.174;6.738;2024-03-07T15:17:44;10.30;46.90
48589;DHT22;34369;51.174;6.738;2024-03-07T15:20:16;10.30;46.60
48589;DHT22;34369;51.174;6.738;2024-03-07T15:22:54;10.30;46.40
48589;DHT22;34369;51.174;6.738;2024-03-07T15:25:27;10.20;46.60
48589;DHT22;34369;51.174;6.738;2024-03-07T15:28:00;10.20;46.20
48589;DHT22;34369;51.174;6.738;2024-03-07T15:30:34;10.20;46.10
48589;DHT22;34369;51.174;6.738;2024-03-07T15:33:06;10.10;46.20
48589;DHT22;34369;51.174;6.738;2024-03-07T15:35:38;10.00;46.50
48589;DHT22;34369;51.174;6.738;2024-03-07T15:38:10;10.00;46.50
48589;DHT22;34369;51.174;6.738;2024-03-07T15:40:44;10.00;46.20
48589;DHT22;34369;51.174;6.738;2024-03-07T15:43:16;10.00;46.30
48589;DHT22;34369;51.174;6.738;2024-03-07T15:45:51;10.00;46.20
48589;DHT22;34369;51.174;6.738;2024-03-07T15:48:23;10.00;45.90
48589;DHT22;34369;51.174;6.738;2024-03-07T15:50:56;10.00;46.10
48589;DHT22;34369;51.174;6.738;2024-03-07T15:53:29;10.00;45.90
48589;DHT22;34369;51.174;6.738;2024-03-07T15:56:08;9.90;45.90
48589;DHT22;34369;51.174;6.738;2024-03-07T15:58:41;9.80;45.90
48589;DHT22;34369;51.174;6.738;2024-03-07T16:01:14;9.80;45.50
48589;DHT22;34369;51.174;6.738;2024-03-07T16:03:47;9.80;45.90
48589;DHT22;34369;51.174;6.738;2024-03-07T16:06:20;9.70;45.60
48589;DHT22;34369;51.174;6.738;2024-03-07T16:08:52;9.70;45.90
48589;DHT22;34369;51.174;6.738;2024-03-07T16:11:26;9.70;45.90
48589;DHT22;34369;51.174;6.738;2024-03-07T16:13:58;9.60;46.50
48589;DHT22;34369;51.174;6.738;2024-03-07T16:16:31;9.60;46.10
48589;DHT22;34369;51.174;6.738;2024-03-07T16:19:05;9.60;45.70
48589;DHT22;34369;51.174;6.738;2024-03-07T16:21:44;9.60;45.90
48589;DHT22;34369;51.174;6.738;2024-03-07T16:24:16;9.60;45.90
48589;DHT22;34369;51.174;6.738;2024-03-07T16:26:49;9.60;45.90
48589;DHT22;34369;51.174;6.738;2024-03-07T16:29:21;9.50;45.50
48589;DHT22;34369;51.174;6.738;2024-03-07T16:31:55;9.50;45.30
48589;DHT22;34369;51.174;6.738;2024-03-07T16:34:27;9.40;45.70
48589;DHT22;34369;51.174;6.738;2024-03-07T16:37:00;9.40;45.50
48589;DHT22;34369;51.174;6.738;2024-03-07T16:39:32;9.40;45.70